createdAt,value
2022-08-24T00:01:58.901Z,15.37
2022-08-24T00:04:25.658Z,15.32
2022-08-24T00:06:52.357Z,15.25
2022-08-24T00:09:18.795Z,15.18
2022-08-24T00:11:45.215Z,15.14
2022-08-24T00:14:12.031Z,15.06
2022-08-24T00:16:38.423Z,15.03
2022-08-24T00:19:05.024Z,14.97
2022-08-24T00:21:31.341Z,14.96
2022-08-24T00:23:57.689Z,14.97
2022-08-24T00:26:28.571Z,14.93
2022-08-24T00:28:55.526Z,14.92
2022-08-24T00:31:22.335Z,14.93
2022-08-24T00:33:48.789Z,14.96
2022-08-24T00:36:15.113Z,14.97
2022-08-24T00:38:42.338Z,14.96
2022-08-24T00:41:08.755Z,14.94
2022-08-24T00:43:35.080Z,14.92
2022-08-24T00:46:04.485Z,14.90
2022-08-24T00:48:33.321Z,14.90
2022-08-24T00:51:02.691Z,14.90
2022-08-24T00:53:34.717Z,14.89
2022-08-24T00:56:04.889Z,14.90
2022-08-24T00:58:36.355Z,14.89
2022-08-24T01:01:06.398Z,14.83
2022-08-24T01:03:34.440Z,14.77
2022-08-24T01:06:00.793Z,14.72
2022-08-24T01:08:27.885Z,14.65
2022-08-24T01:10:56.749Z,14.59
2022-08-24T01:13:25.198Z,14.57
2022-08-24T01:15:53.674Z,14.54
2022-08-24T01:18:41.887Z,14.56
2022-08-24T01:21:22.675Z,14.57
2022-08-24T01:23:57.258Z,14.55
2022-08-24T01:26:28.215Z,14.55
2022-08-24T01:29:00.146Z,14.55
2022-08-24T01:31:26.604Z,14.54
2022-08-24T01:33:54.164Z,14.52
2022-08-24T01:36:28.551Z,14.47
2022-08-24T01:38:56.317Z,14.46
2022-08-24T01:41:26.914Z,14.41
2022-08-24T01:43:55.312Z,14.38
2022-08-24T01:46:21.774Z,14.34
2022-08-24T01:48:48.216Z,14.32
2022-08-24T01:51:14.657Z,14.30
2022-08-24T01:53:41.002Z,14.30
2022-08-24T01:56:07.323Z,14.30
2022-08-24T01:58:33.793Z,14.33
2022-08-24T02:01:00.143Z,14.38
2022-08-24T02:03:29.483Z,14.39
2022-08-24T02:05:56.941Z,14.42
2022-08-24T02:08:23.257Z,14.45
2022-08-24T02:10:56.317Z,14.42
2022-08-24T02:13:23.259Z,14.52
2022-08-24T02:15:49.880Z,14.50
2022-08-24T02:18:16.238Z,14.50
2022-08-24T02:20:43.298Z,14.47
2022-08-24T02:23:09.620Z,14.49
2022-08-24T02:25:35.987Z,14.49
2022-08-24T02:28:02.345Z,14.48
2022-08-24T02:30:29.325Z,14.48
2022-08-24T02:32:55.911Z,14.43
2022-08-24T02:35:22.434Z,14.42
2022-08-24T02:37:49.289Z,14.41
2022-08-24T02:40:15.861Z,14.41
2022-08-24T02:42:42.260Z,14.48
2022-08-24T02:45:09.231Z,14.54
2022-08-24T02:47:37.993Z,14.57
2022-08-24T02:50:06.616Z,14.59
2022-08-24T02:52:32.998Z,14.57
2022-08-24T02:54:59.285Z,14.60
2022-08-24T02:57:25.647Z,14.62
2022-08-24T02:59:51.979Z,14.65
2022-08-24T03:02:18.599Z,14.73
2022-08-24T03:04:45.019Z,14.79
2022-08-24T03:07:15.888Z,14.77
2022-08-24T03:09:42.176Z,14.75
2022-08-24T03:12:08.560Z,14.71
2022-08-24T03:14:35.757Z,14.72
2022-08-24T03:17:02.246Z,14.74
2022-08-24T03:19:28.525Z,14.74
2022-08-24T03:21:55.126Z,14.72
2022-08-24T03:24:21.638Z,14.74
2022-08-24T03:26:47.937Z,14.73
2022-08-24T03:29:15.833Z,14.71
2022-08-24T03:31:42.621Z,14.65
2022-08-24T03:34:08.978Z,14.67
2022-08-24T03:36:35.287Z,14.64
2022-08-24T03:39:01.603Z,14.58
2022-08-24T03:41:28.004Z,14.58
2022-08-24T03:43:55.961Z,14.53
2022-08-24T03:46:25.244Z,14.49
2022-08-24T03:48:52.287Z,14.43
2022-08-24T03:51:20.408Z,14.42
2022-08-24T03:53:46.833Z,14.38
2022-08-24T03:56:13.426Z,14.37
2022-08-24T03:58:41.571Z,14.41
2022-08-24T04:01:08.216Z,14.44
2022-08-24T04:03:41.677Z,14.45
2022-08-24T04:06:08.447Z,14.51
2022-08-24T04:08:35.184Z,14.53
2022-08-24T04:11:01.924Z,14.62
2022-08-24T04:13:31.888Z,14.63
2022-08-24T04:15:58.926Z,14.69
2022-08-24T04:18:28.630Z,14.67
2022-08-24T04:20:55.180Z,14.73
2022-08-24T04:23:21.619Z,14.74
2022-08-24T04:25:55.377Z,14.72
2022-08-24T04:28:23.141Z,14.73
2022-08-24T04:30:52.374Z,14.74
2022-08-24T04:33:19.397Z,14.73
2022-08-24T04:35:47.977Z,14.72
2022-08-24T04:38:15.580Z,14.75
2022-08-24T04:40:42.891Z,14.72
2022-08-24T04:43:19.101Z,14.76
2022-08-24T04:45:47.989Z,14.75
2022-08-24T04:48:15.490Z,14.72
2022-08-24T04:50:42.796Z,14.73
2022-08-24T04:53:10.183Z,14.75
2022-08-24T04:55:50.177Z,14.75
2022-08-24T04:58:17.843Z,14.83
2022-08-24T05:00:44.733Z,14.85
2022-08-24T05:03:11.276Z,14.91
2022-08-24T05:05:41.819Z,14.92
2022-08-24T05:08:08.486Z,14.92
2022-08-24T05:10:34.813Z,14.96
2022-08-24T05:13:01.146Z,15.01
2022-08-24T05:15:27.491Z,15.05
2022-08-24T05:17:53.799Z,15.09
2022-08-24T05:20:20.288Z,15.20
2022-08-24T05:22:46.892Z,15.25
2022-08-24T05:25:13.251Z,15.36
2022-08-24T05:27:39.588Z,15.43
2022-08-24T05:30:06.248Z,15.60
2022-08-24T05:32:32.646Z,15.72
2022-08-24T05:34:59.902Z,15.92
2022-08-24T05:37:26.296Z,16.11
2022-08-24T05:39:52.870Z,16.30
2022-08-24T05:42:19.213Z,16.43
2022-08-24T05:44:45.636Z,16.56
2022-08-24T05:47:12.190Z,16.67
2022-08-24T05:49:41.617Z,16.79
2022-08-24T05:52:08.798Z,16.93
2022-08-24T05:54:35.196Z,17.09
2022-08-24T05:57:04.740Z,17.27
2022-08-24T05:59:31.411Z,17.45
2022-08-24T06:01:58.248Z,17.57
2022-08-24T06:04:25.651Z,17.73
2022-08-24T06:06:52.684Z,17.93
2022-08-24T06:09:18.983Z,18.07
2022-08-24T06:11:46.850Z,18.21
2022-08-24T06:14:14.664Z,18.33
2022-08-24T06:16:42.900Z,18.48
2022-08-24T06:19:09.802Z,18.53
2022-08-24T06:21:37.824Z,18.67
2022-08-24T06:24:04.969Z,18.80
2022-08-24T06:26:50.474Z,18.91
2022-08-24T06:29:17.412Z,19.00
2022-08-24T06:31:45.018Z,19.17
2022-08-24T06:34:14.033Z,19.15
2022-08-24T06:36:40.368Z,19.18
2022-08-24T06:39:08.830Z,19.26
2022-08-24T06:41:37.085Z,19.31
2022-08-24T06:44:03.492Z,19.43
2022-08-24T06:46:32.745Z,19.59
2022-08-24T06:48:59.542Z,19.59
2022-08-24T06:51:25.940Z,19.58
2022-08-24T06:53:54.477Z,19.65
2022-08-24T06:56:20.790Z,19.71
2022-08-24T06:58:47.423Z,19.89
2022-08-24T07:01:15.824Z,20.06
2022-08-24T07:03:43.734Z,20.09
2022-08-24T07:06:12.528Z,20.15
2022-08-24T07:08:39.322Z,20.23
2022-08-24T07:11:06.011Z,20.35
2022-08-24T07:13:32.806Z,20.54
2022-08-24T07:15:59.217Z,20.72
2022-08-24T07:18:25.807Z,20.83
2022-08-24T07:20:53.538Z,20.76
2022-08-24T07:23:20.886Z,20.77
2022-08-24T07:25:49.714Z,20.83
2022-08-24T07:28:16.399Z,20.91
2022-08-24T07:30:43.061Z,20.82
2022-08-24T07:33:09.942Z,20.91
2022-08-24T07:35:37.231Z,20.95
2022-08-24T07:38:05.026Z,21.05
2022-08-24T07:40:36.477Z,21.18
2022-08-24T07:43:15.228Z,21.19
2022-08-24T07:45:42.225Z,21.31
2022-08-24T07:48:11.630Z,21.42
2022-08-24T07:50:40.558Z,21.38
2022-08-24T07:53:09.816Z,21.47
2022-08-24T07:55:45.922Z,21.64
2022-08-24T07:58:12.713Z,21.75
2022-08-24T08:00:39.033Z,21.70
2022-08-24T08:03:06.327Z,21.78
2022-08-24T08:05:38.060Z,21.77
2022-08-24T08:08:04.491Z,21.85
2022-08-24T08:10:31.081Z,21.79
2022-08-24T08:12:57.454Z,21.72
2022-08-24T08:15:23.834Z,21.79
2022-08-24T08:17:55.792Z,21.99
2022-08-24T08:20:22.608Z,22.13
2022-08-24T08:23:07.416Z,22.19
2022-08-24T08:25:34.813Z,22.15
2022-08-24T08:28:07.919Z,22.12
2022-08-24T08:30:45.470Z,22.16
2022-08-24T08:33:13.842Z,22.11
2022-08-24T08:35:41.455Z,22.28
2022-08-24T08:38:09.047Z,22.35
2022-08-24T08:40:38.259Z,22.33
2022-08-24T08:43:21.672Z,22.53
2022-08-24T08:46:07.010Z,22.61
2022-08-24T08:48:36.116Z,22.82
2022-08-24T08:51:21.208Z,22.73
2022-08-24T08:54:03.483Z,22.82
2022-08-24T08:56:29.768Z,22.81
2022-08-24T08:59:14.745Z,23.03
2022-08-24T09:01:48.202Z,22.93
2022-08-24T09:04:21.265Z,22.92
2022-08-24T09:07:14.195Z,22.81
2022-08-24T09:09:55.635Z,22.88
2022-08-24T09:12:29.465Z,22.91
2022-08-24T09:15:06.731Z,22.97
2022-08-24T09:17:42.047Z,23.07
2022-08-24T09:20:29.002Z,23.12
2022-08-24T09:23:03.061Z,23.24
2022-08-24T09:25:36.033Z,23.36
2022-08-24T09:28:05.477Z,23.32
2022-08-24T09:30:41.371Z,23.40
2022-08-24T09:33:17.489Z,23.37
2022-08-24T09:35:43.993Z,23.38
2022-08-24T09:38:29.045Z,23.48
2022-08-24T09:40:55.367Z,23.38
2022-08-24T09:43:40.521Z,23.51
2022-08-24T09:46:14.829Z,23.52
2022-08-24T09:48:41.241Z,23.54
2022-08-24T09:51:25.514Z,23.52
2022-08-24T09:53:54.877Z,23.65
2022-08-24T09:56:21.193Z,23.83
2022-08-24T09:58:47.483Z,23.94
2022-08-24T10:01:13.832Z,23.89
2022-08-24T10:03:40.139Z,24.04
2022-08-24T10:06:12.388Z,24.02
2022-08-24T10:08:57.433Z,24.24
2022-08-24T10:11:42.679Z,24.36
2022-08-24T10:14:16.903Z,24.40
2022-08-24T10:17:03.779Z,24.40
2022-08-24T10:19:48.994Z,24.46
2022-08-24T10:22:30.853Z,24.51
2022-08-24T10:25:06.420Z,24.74
2022-08-24T10:27:40.139Z,24.91
2022-08-24T10:30:26.672Z,24.98
2022-08-24T10:33:03.344Z,25.15
2022-08-24T10:35:36.914Z,25.38
2022-08-24T10:38:34.442Z,25.57
2022-08-24T10:41:16.769Z,25.65
2022-08-24T10:43:55.518Z,25.90
2022-08-24T10:46:25.022Z,25.95
2022-08-24T10:49:00.432Z,25.84
2022-08-24T10:51:41.985Z,26.06
2022-08-24T10:54:11.023Z,26.18
2022-08-24T10:56:48.119Z,26.19
2022-08-24T10:59:25.787Z,26.13
2022-08-24T11:02:12.835Z,26.50
2022-08-24T11:04:39.880Z,27.29
2022-08-24T11:07:17.507Z,28.08
2022-08-24T11:09:45.218Z,29.09
2022-08-24T11:12:23.758Z,29.39
2022-08-24T11:14:50.781Z,29.73
2022-08-24T11:17:19.075Z,30.03
2022-08-24T11:19:45.599Z,30.33
2022-08-24T11:22:33.292Z,30.62
2022-08-24T11:25:01.732Z,30.91
2022-08-24T11:27:29.034Z,31.29
2022-08-24T11:29:56.453Z,31.37
2022-08-24T11:32:27.333Z,31.51
2022-08-24T11:34:53.651Z,31.49
2022-08-24T11:37:26.263Z,31.49
2022-08-24T11:39:55.557Z,31.26
2022-08-24T11:42:31.304Z,31.85
2022-08-24T11:45:07.915Z,31.83
2022-08-24T11:47:34.191Z,31.92
2022-08-24T11:50:19.409Z,32.04
2022-08-24T11:52:55.646Z,32.27
2022-08-24T11:55:47.131Z,32.06
2022-08-24T11:58:34.356Z,33.01
2022-08-24T12:01:20.936Z,32.52
2022-08-24T12:03:53.283Z,33.05
2022-08-24T12:06:38.695Z,33.08
2022-08-24T12:09:11.045Z,33.00
2022-08-24T12:11:37.401Z,32.95
2022-08-24T12:14:10.962Z,33.22
2022-08-24T12:16:37.335Z,33.36
2022-08-24T12:19:08.868Z,33.43
2022-08-24T12:21:38.129Z,33.35
2022-08-24T12:24:08.202Z,33.33
2022-08-24T12:26:47.297Z,33.60
2022-08-24T12:29:22.928Z,33.68
2022-08-24T12:31:52.830Z,33.25
2022-08-24T12:34:25.201Z,32.82
2022-08-24T12:37:01.023Z,32.72
2022-08-24T12:39:31.544Z,32.54
2022-08-24T12:41:57.835Z,32.47
2022-08-24T12:44:28.264Z,33.25
2022-08-24T12:46:54.760Z,32.68
2022-08-24T12:49:30.474Z,33.29
2022-08-24T12:52:12.673Z,33.26
2022-08-24T12:54:46.499Z,32.49
2022-08-24T12:57:25.635Z,32.53
2022-08-24T12:59:53.972Z,32.62
2022-08-24T13:02:20.293Z,32.48
2022-08-24T13:04:49.657Z,32.36
2022-08-24T13:07:19.128Z,32.02
2022-08-24T13:09:45.423Z,32.26
2022-08-24T13:12:30.808Z,32.12
2022-08-24T13:15:29.671Z,32.03
2022-08-24T13:18:02.627Z,32.62
2022-08-24T13:20:32.647Z,33.03
2022-08-24T13:23:11.179Z,32.67
2022-08-24T13:25:46.740Z,32.74
2022-08-24T13:28:22.531Z,32.19
2022-08-24T13:31:07.515Z,32.30
2022-08-24T13:33:44.292Z,32.97
2022-08-24T13:36:13.745Z,32.79
2022-08-24T13:38:42.517Z,33.07
2022-08-24T13:41:09.078Z,32.69
2022-08-24T13:43:35.377Z,32.82
2022-08-24T13:46:13.252Z,32.45
2022-08-24T13:48:39.717Z,32.56
2022-08-24T13:51:16.883Z,32.79
2022-08-24T13:53:52.766Z,33.25
2022-08-24T13:56:19.398Z,32.64
2022-08-24T13:58:55.044Z,32.42
2022-08-24T14:01:33.998Z,32.61
2022-08-24T14:04:06.616Z,32.80
2022-08-24T14:06:33.119Z,32.68
2022-08-24T14:09:23.099Z,32.85
2022-08-24T14:12:02.379Z,33.36
2022-08-24T14:14:50.992Z,32.91
2022-08-24T14:17:55.018Z,33.14
2022-08-24T14:20:32.336Z,32.77
2022-08-24T14:23:17.684Z,32.97
2022-08-24T14:25:44.711Z,33.10
2022-08-24T14:28:29.677Z,32.97
2022-08-24T14:31:14.406Z,32.42
2022-08-24T14:33:53.531Z,32.49
2022-08-24T14:36:41.760Z,33.00
2022-08-24T14:39:35.373Z,32.48
2022-08-24T14:42:15.678Z,32.52
2022-08-24T14:45:01.781Z,32.49
2022-08-24T14:47:34.564Z,32.11
2022-08-24T14:50:20.245Z,32.60
2022-08-24T14:53:07.301Z,32.22
2022-08-24T14:55:52.100Z,32.53
2022-08-24T14:58:42.106Z,32.51
2022-08-24T15:01:14.548Z,32.09
2022-08-24T15:04:10.808Z,32.13
2022-08-24T15:06:42.903Z,31.80
2022-08-24T15:09:11.048Z,31.48
2022-08-24T15:11:39.479Z,31.54
2022-08-24T15:14:08.243Z,31.34
2022-08-24T15:16:39.871Z,31.07
2022-08-24T15:19:14.569Z,30.28
2022-08-24T15:21:41.582Z,29.37
2022-08-24T15:24:10.129Z,28.64
2022-08-24T15:26:48.648Z,28.15
2022-08-24T15:29:16.928Z,27.80
2022-08-24T15:31:54.252Z,27.39
2022-08-24T15:34:32.046Z,27.03
2022-08-24T15:36:59.456Z,26.94
2022-08-24T15:39:26.975Z,26.72
2022-08-24T15:41:54.454Z,26.63
2022-08-24T15:44:25.989Z,26.54
2022-08-24T15:46:55.469Z,26.50
2022-08-24T15:49:29.865Z,26.27
2022-08-24T15:52:01.888Z,26.14
2022-08-24T15:54:33.653Z,26.14
2022-08-24T15:57:18.504Z,25.97
2022-08-24T15:59:47.260Z,25.78
2022-08-24T16:02:26.034Z,25.71
2022-08-24T16:05:01.385Z,25.50
2022-08-24T16:07:53.541Z,25.53
2022-08-24T16:10:28.059Z,25.46
2022-08-24T16:13:05.445Z,25.42
2022-08-24T16:15:32.190Z,25.28
2022-08-24T16:17:59.355Z,25.23
2022-08-24T16:20:26.174Z,25.13
2022-08-24T16:23:03.323Z,25.09
2022-08-24T16:25:34.557Z,25.01
2022-08-24T16:28:30.460Z,25.03
2022-08-24T16:31:03.086Z,24.90
2022-08-24T16:33:43.149Z,24.85
2022-08-24T16:36:13.215Z,24.78
2022-08-24T16:38:46.170Z,24.64
2022-08-24T16:41:13.202Z,24.64
2022-08-24T16:43:41.023Z,24.50
2022-08-24T16:46:08.417Z,24.44
2022-08-24T16:48:34.776Z,24.35
2022-08-24T16:51:02.023Z,24.33
2022-08-24T16:53:28.702Z,24.31
2022-08-24T16:55:55.123Z,24.23
2022-08-24T16:58:25.458Z,24.23
2022-08-24T17:00:53.019Z,24.02
2022-08-24T17:03:19.413Z,23.98
2022-08-24T17:05:45.826Z,23.90
2022-08-24T17:08:12.762Z,23.90
2022-08-24T17:10:39.475Z,23.80
2022-08-24T17:13:05.902Z,23.66
2022-08-24T17:15:32.404Z,23.57
2022-08-24T17:18:02.081Z,23.51
2022-08-24T17:20:29.381Z,23.44
2022-08-24T17:22:56.675Z,23.41
2022-08-24T17:25:23.337Z,23.35
2022-08-24T17:27:49.827Z,23.28
2022-08-24T17:30:20.175Z,23.15
2022-08-24T17:32:48.045Z,23.08
2022-08-24T17:35:15.209Z,22.99
2022-08-24T17:37:42.743Z,22.90
2022-08-24T17:40:12.142Z,22.84
2022-08-24T17:42:50.959Z,22.77
2022-08-24T17:45:17.828Z,22.67
2022-08-24T17:47:44.577Z,22.57
2022-08-24T17:50:11.879Z,22.52
2022-08-24T17:52:38.753Z,22.47
2022-08-24T17:55:06.529Z,22.38
2022-08-24T17:57:32.988Z,22.30
2022-08-24T17:59:59.333Z,22.22
2022-08-24T18:02:25.698Z,22.16
2022-08-24T18:04:52.062Z,22.09
2022-08-24T18:07:35.952Z,22.02
2022-08-24T18:10:07.825Z,21.94
2022-08-24T18:12:34.207Z,21.88
2022-08-24T18:15:01.478Z,21.74
2022-08-24T18:17:34.005Z,21.69
2022-08-24T18:20:00.418Z,21.64
2022-08-24T18:22:26.736Z,21.57
2022-08-24T18:24:53.041Z,21.48
2022-08-24T18:27:23.999Z,21.36
2022-08-24T18:29:55.016Z,21.36
2022-08-24T18:32:23.897Z,21.28
2022-08-24T18:34:55.025Z,21.22
2022-08-24T18:37:21.331Z,21.11
2022-08-24T18:39:47.700Z,21.02
2022-08-24T18:42:14.137Z,20.94
2022-08-24T18:44:40.757Z,20.82
2022-08-24T18:47:07.909Z,20.76
2022-08-24T18:49:35.507Z,20.67
2022-08-24T18:52:02.464Z,20.59
2022-08-24T18:54:31.483Z,20.52
2022-08-24T18:56:58.056Z,20.48
2022-08-24T18:59:24.383Z,20.42
2022-08-24T19:02:10.128Z,20.39
2022-08-24T19:04:45.175Z,20.34
2022-08-24T19:07:12.235Z,20.29
2022-08-24T19:09:38.550Z,20.18
2022-08-24T19:12:06.321Z,20.15
2022-08-24T19:14:33.522Z,20.08
2022-08-24T19:17:00.006Z,19.99
2022-08-24T19:19:26.379Z,19.95
2022-08-24T19:21:53.275Z,19.89
2022-08-24T19:24:23.430Z,19.86
2022-08-24T19:26:49.747Z,19.79
2022-08-24T19:29:33.260Z,19.72
2022-08-24T19:32:05.903Z,19.67
2022-08-24T19:34:36.952Z,19.59
2022-08-24T19:37:04.446Z,19.53
2022-08-24T19:39:31.819Z,19.50
2022-08-24T19:41:58.430Z,19.47
2022-08-24T19:44:49.395Z,19.44
2022-08-24T19:47:18.416Z,19.44
2022-08-24T19:49:45.611Z,19.39
2022-08-24T19:52:12.499Z,19.35
2022-08-24T19:54:40.922Z,19.33
2022-08-24T19:57:27.163Z,19.26
2022-08-24T19:59:53.663Z,19.22
2022-08-24T20:02:20.075Z,19.22
2022-08-24T20:04:46.447Z,19.18
2022-08-24T20:07:14.812Z,19.18
2022-08-24T20:09:41.131Z,19.17
2022-08-24T20:12:07.837Z,19.14
2022-08-24T20:14:37.558Z,19.09
2022-08-24T20:17:04.521Z,19.11
2022-08-24T20:19:34.130Z,19.12
2022-08-24T20:22:00.452Z,19.09
2022-08-24T20:24:27.543Z,19.07
2022-08-24T20:26:53.872Z,19.06
2022-08-24T20:29:20.891Z,19.04
2022-08-24T20:31:48.446Z,19.02
2022-08-24T20:34:17.063Z,19.03
2022-08-24T20:36:45.968Z,19.02
2022-08-24T20:39:13.204Z,18.96
2022-08-24T20:41:40.581Z,18.92
2022-08-24T20:44:09.663Z,18.88
2022-08-24T20:46:36.884Z,18.89
2022-08-24T20:49:04.090Z,18.86
2022-08-24T20:51:30.515Z,18.80
2022-08-24T20:53:56.844Z,18.77
2022-08-24T20:56:32.109Z,18.79
2022-08-24T20:59:02.209Z,18.79
2022-08-24T21:01:29.458Z,18.85
2022-08-24T21:03:59.317Z,18.86
2022-08-24T21:06:28.037Z,18.87
2022-08-24T21:08:54.390Z,18.81
2022-08-24T21:11:21.251Z,18.79
2022-08-24T21:13:47.606Z,18.76
2022-08-24T21:16:14.985Z,18.70
2022-08-24T21:18:42.375Z,18.67
2022-08-24T21:21:09.264Z,18.60
2022-08-24T21:23:35.647Z,18.59
2022-08-24T21:26:03.127Z,18.61
2022-08-24T21:28:29.942Z,18.58
2022-08-24T21:30:56.297Z,18.55
2022-08-24T21:33:41.453Z,18.54
2022-08-24T21:36:08.914Z,18.51
2022-08-24T21:38:35.694Z,18.47
2022-08-24T21:41:02.305Z,18.43
2022-08-24T21:43:28.989Z,18.41
2022-08-24T21:45:56.492Z,18.40
2022-08-24T21:48:22.874Z,18.40
2022-08-24T21:50:49.383Z,18.39
2022-08-24T21:53:15.891Z,18.36
2022-08-24T21:55:42.898Z,18.34
2022-08-24T21:58:10.076Z,18.33
2022-08-24T22:00:36.680Z,18.31
2022-08-24T22:03:04.473Z,18.28
2022-08-24T22:05:31.386Z,18.26
2022-08-24T22:07:58.537Z,18.22
2022-08-24T22:10:26.194Z,18.19
2022-08-24T22:12:53.074Z,18.18
2022-08-24T22:15:23.252Z,18.17
2022-08-24T22:17:52.822Z,18.15
2022-08-24T22:20:21.670Z,18.16
2022-08-24T22:22:49.888Z,18.20
2022-08-24T22:25:16.219Z,18.14
2022-08-24T22:27:43.835Z,18.11
2022-08-24T22:30:11.422Z,18.05
2022-08-24T22:32:37.800Z,18.00
2022-08-24T22:35:04.980Z,17.95
2022-08-24T22:37:31.324Z,17.91
2022-08-24T22:39:57.791Z,17.87
2022-08-24T22:42:24.105Z,17.86
2022-08-24T22:44:50.472Z,17.86
2022-08-24T22:47:18.053Z,17.86
2022-08-24T22:49:46.392Z,17.86
2022-08-24T22:52:14.449Z,17.85
2022-08-24T22:54:40.982Z,17.81
2022-08-24T22:57:07.942Z,17.78
2022-08-24T22:59:36.328Z,17.78
2022-08-24T23:02:07.335Z,17.76
2022-08-24T23:04:35.857Z,17.75
2022-08-24T23:07:02.420Z,17.69
2022-08-24T23:09:28.799Z,17.64
2022-08-24T23:12:09.118Z,17.58
2022-08-24T23:14:35.988Z,17.53
2022-08-24T23:17:02.850Z,17.50
2022-08-24T23:19:47.915Z,17.47
2022-08-24T23:22:15.957Z,17.43
2022-08-24T23:24:42.602Z,17.40
2022-08-24T23:27:10.011Z,17.39
2022-08-24T23:29:37.369Z,17.37
2022-08-24T23:32:04.719Z,17.36
2022-08-24T23:34:31.246Z,17.33
2022-08-24T23:36:57.587Z,17.30
2022-08-24T23:39:24.270Z,17.28
2022-08-24T23:41:50.990Z,17.24
2022-08-24T23:44:19.150Z,17.24
2022-08-24T23:46:46.014Z,17.20
2022-08-24T23:49:13.322Z,17.17
2022-08-24T23:51:39.731Z,17.14
2022-08-24T23:54:06.951Z,17.11
2022-08-24T23:56:34.476Z,17.10
2022-08-24T23:59:21.114Z,17.07
